Terminal Aerodrome Forecast
Issued by NWS

Home | Current Version | Previous Version | Text Only | Print | Product List | Glossary On
Versions: 1 2 3 4 5 6 7 8 9 10 11 12 13 14
000
FTUS42 TJSJ 300548
TAFJMZ
TAF
TJMZ 300548Z 3006/0106 05011KT P6SM -RA SCT030 BKN050
     FM301330 07006KT P6SM SCT030 SCT100
     FM301730 07006KT P6SM VCTS BKN030CB BKN100
     FM302200 06006KT P6SM VCSH SCT025 SCT040
      AMD NOT SKED TIL 301500=

USA.gov is the U.S. government's official web portal to all federal, state and local government web resources and services.